This is the latest recevied weather packets stored in our database for station/object AC5CM. If no packets are shown the sender has not sent any weather packets the latest 1 day(s).
| Time | Temp. | Humidity | Pressure | Rain* | Wind** | Luminosity | Snow |
|---|---|---|---|---|---|---|---|
| 1778033700 | 25.56° C | 85% | 1009.3 hPa | 0 mm | 2.24 m/s, 170° | - | - |
| 1778033397 | 25.56° C | 85% | 1009.2 hPa | 0 mm | 0.89 m/s, 191° | - | - |
| 1778033094 | 25.56° C | 85% | 1009.1 hPa | 0 mm | 0.89 m/s, 99° | - | - |
| 1778032791 | 25.56° C | 86% | 1008.8 hPa | 0 mm | 1.34 m/s, 187° | - | - |
| 1778032489 | 25.56° C | 86% | 1008.8 hPa | 0 mm | 0.45 m/s, 287° | - | - |
| 1778032186 | 25.56° C | 86% | 1008.7 hPa | 0 mm | 0.89 m/s, 168° | - | - |
| 1778031883 | 25.56° C | 85% | 1008.9 hPa | 0 mm | 0.89 m/s, 129° | - | - |
| 1778031579 | 25.56° C | 85% | 1008.5 hPa | 0 mm | 1.34 m/s, 128° | - | - |
| 1778031277 | 25.56° C | 85% | 1008.5 hPa | 0 mm | 0 m/s | - | - |
| 1778030973 | 25.56° C | 85% | 1008.6 hPa | 0 mm | 1.79 m/s, 181° | - | - |
| 1778030670 | 25.56° C | 85% | 1008.6 hPa | 0 mm | 0 m/s | - | - |
| 1778030367 | 25.56° C | 85% | 1008.5 hPa | 0 mm | 1.79 m/s, 149° | - | - |
| 1778030064 | 26.11° C | 84% | 1008.3 hPa | 0 mm | 0.89 m/s, 222° | - | - |
| 1778029761 | 26.11° C | 84% | 1008.4 hPa | 0 mm | 1.79 m/s, 91° | - | - |
| 1778029460 | 26.11° C | 84% | 1008.3 hPa | 0 mm | 0.45 m/s, 256° | - | - |
| 1778029155 | 26.11° C | 84% | 1008.1 hPa | 0 mm | 1.79 m/s, 110° | - | - |
| 1778028854 | 26.11° C | 84% | 1008.1 hPa | 0 mm | 0.45 m/s, 356° | - | - |
| 1778028549 | 26.11° C | 83% | 1008 hPa | 0 mm | 1.79 m/s, 169° | - | - |
| 1778028247 | 26.11° C | 83% | 1008.1 hPa | 0 mm | 0.89 m/s, 82° | - | - |
| 1778027942 | 26.11° C | 83% | 1007.9 hPa | 0 mm | 1.79 m/s, 197° | - | - |
| 1778027639 | 26.11° C | 83% | 1008 hPa | 0 mm | 1.34 m/s, 164° | - | - |
| 1778027335 | 26.11° C | 82% | 1007.8 hPa | 0 mm | 1.79 m/s, 116° | - | - |
| 1778027032 | 26.67° C | 82% | 1008 hPa | 0 mm | 0.89 m/s, 145° | - | - |
| 1778026727 | 26.67° C | 82% | 1007.8 hPa | 0 mm | 0.45 m/s, 125° | - | - |
| 1778026424 | 26.67° C | 82% | 1007.8 hPa | 0 mm | 1.79 m/s, 132° | - | - |
* Rain latest hour (hover to see other rain measurements)
** Current wind speed in m/s (hover to see current wind gust speed)